Time;durP1;ratioP1;P1;durP2;ratioP2;P2;SDS_P1;SDS_P2;PMS_P1;PMS_P2;Temp;Humidity;BMP_temperature;BMP_pressure;BME280_temperature;BME280_humidity;BME280_pressure;Samples;Min_cycle;Max_cycle;Signal;HPM_P1;HPM_P2
2022/03/14 00:01:35;;;;;;;17.08;9.70;;;;;;;;;;5093697;28;20244;-64
2022/03/14 00:04:02;;;;;;;16.50;9.15;;;;;;;;;;5093934;28;20278;-64
2022/03/14 00:06:28;;;;;;;16.83;9.77;;;;;;;;;;5094025;28;20171;-64
2022/03/14 00:08:55;;;;;;;16.23;9.60;;;;;;;;;;5094134;28;20688;-64
2022/03/14 00:11:22;;;;;;;17.70;9.38;;;;;;;;;;5094009;28;20179;-64
2022/03/14 00:13:48;;;;;;;14.27;8.85;;;;;;;;;;5093723;28;20164;-64
2022/03/14 00:16:20;;;;;;;16.08;8.98;;;;;;;;;;5093525;28;20167;-64
2022/03/14 00:18:51;;;;;;;13.90;9.20;;;;;;;;;;5094206;28;20162;-64
2022/03/14 00:21:19;;;;;;;14.27;8.90;;;;;;;;;;5093924;28;20152;-64
2022/03/14 00:23:45;;;;;;;15.18;9.18;;;;;;;;;;5094016;28;20180;-64
2022/03/14 00:26:11;;;;;;;15.77;9.23;;;;;;;;;;5093642;28;20159;-64
2022/03/14 00:28:37;;;;;;;14.77;9.07;;;;;;;;;;5093846;28;20175;-64
2022/03/14 00:31:03;;;;;;;16.30;9.73;;;;;;;;;;5093845;28;20611;-64
2022/03/14 00:33:29;;;;;;;16.65;9.60;;;;;;;;;;5093464;28;20171;-63
2022/03/14 00:35:56;;;;;;;17.25;9.40;;;;;;;;;;5093612;28;20638;-64
2022/03/14 00:38:23;;;;;;;14.70;9.02;;;;;;;;;;5093753;28;20244;-64
2022/03/14 00:40:50;;;;;;;16.38;9.40;;;;;;;;;;5093679;28;20610;-64
2022/03/14 00:43:16;;;;;;;15.93;9.80;;;;;;;;;;5093856;28;20175;-63
2022/03/14 00:45:42;;;;;;;19.38;9.73;;;;;;;;;;5093424;28;20229;-64
2022/03/14 00:48:08;;;;;;;16.08;8.40;;;;;;;;;;5093468;28;20164;-65
2022/03/14 00:50:34;;;;;;;16.55;9.80;;;;;;;;;;5093760;28;20182;-65
2022/03/14 00:53:00;;;;;;;18.15;9.98;;;;;;;;;;5093628;28;20250;-65
2022/03/14 00:55:26;;;;;;;17.10;9.48;;;;;;;;;;5093537;28;20183;-65
2022/03/14 00:57:51;;;;;;;16.80;10.02;;;;;;;;;;5094049;28;20164;-63
2022/03/14 01:00:17;;;;;;;18.52;9.80;;;;;;;;;;5093909;28;20226;-64
2022/03/14 01:02:43;;;;;;;17.50;10.15;;;;;;;;;;5093408;28;20164;-65
2022/03/14 01:05:09;;;;;;;18.00;9.38;;;;;;;;;;5095052;28;20174;-65
2022/03/14 01:07:35;;;;;;;17.02;9.57;;;;;;;;;;5097326;28;20178;-64
2022/03/14 01:10:03;;;;;;;16.15;9.40;;;;;;;;;;5097073;28;20207;-64
2022/03/14 01:12:29;;;;;;;15.07;9.32;;;;;;;;;;5096669;28;20531;-64
2022/03/14 01:14:56;;;;;;;16.52;8.30;;;;;;;;;;5096628;28;20626;-64
2022/03/14 01:17:22;;;;;;;18.40;9.93;;;;;;;;;;5097045;28;20207;-64
2022/03/14 01:19:48;;;;;;;15.20;9.40;;;;;;;;;;5096597;28;20191;-64
2022/03/14 01:22:14;;;;;;;15.85;9.05;;;;;;;;;;5096820;28;20159;-64
2022/03/14 01:24:40;;;;;;;16.15;9.30;;;;;;;;;;5096992;28;20254;-64
2022/03/14 01:27:07;;;;;;;18.02;9.65;;;;;;;;;;5096840;28;20614;-64
2022/03/14 01:29:34;;;;;;;14.68;9.45;;;;;;;;;;5097354;28;20244;-63
2022/03/14 01:32:00;;;;;;;15.32;9.10;;;;;;;;;;5096319;28;20186;-64
2022/03/14 01:34:25;;;;;;;14.93;9.02;;;;;;;;;;5096198;28;20631;-64
2022/03/14 01:36:51;;;;;;;14.38;9.35;;;;;;;;;;5096394;28;20607;-64
2022/03/14 01:39:17;;;;;;;15.88;9.07;;;;;;;;;;5096297;28;20174;-64
2022/03/14 01:41:43;;;;;;;15.77;9.00;;;;;;;;;;5096235;28;20167;-64
2022/03/14 01:44:09;;;;;;;18.67;9.60;;;;;;;;;;5096372;28;20175;-63
2022/03/14 01:46:35;;;;;;;13.98;8.93;;;;;;;;;;5096445;28;20164;-63
2022/03/14 01:49:01;;;;;;;16.05;9.20;;;;;;;;;;5096902;28;20591;-64
2022/03/14 01:51:27;;;;;;;14.85;8.50;;;;;;;;;;5099208;28;20183;-65
2022/03/14 01:53:54;;;;;;;11.77;8.35;;;;;;;;;;5099002;28;20167;-65
2022/03/14 01:56:21;;;;;;;14.07;8.75;;;;;;;;;;5095708;28;20163;-65
2022/03/14 01:58:47;;;;;;;14.88;8.60;;;;;;;;;;5096182;28;20168;-64
2022/03/14 02:01:13;;;;;;;14.35;8.73;;;;;;;;;;5095571;28;20274;-64
2022/03/14 02:03:39;;;;;;;15.55;8.43;;;;;;;;;;5095634;28;20163;-64
2022/03/14 02:06:05;;;;;;;18.25;9.32;;;;;;;;;;5095488;28;20484;-65
2022/03/14 02:08:32;;;;;;;15.15;8.35;;;;;;;;;;5095928;28;20529;-65
2022/03/14 02:10:58;;;;;;;16.35;9.02;;;;;;;;;;5095884;28;20172;-65
2022/03/14 02:13:24;;;;;;;17.05;8.20;;;;;;;;;;5095440;28;20666;-63
2022/03/14 02:15:50;;;;;;;15.60;8.45;;;;;;;;;;5095009;28;20219;-64
2022/03/14 02:18:16;;;;;;;13.73;8.45;;;;;;;;;;5094984;28;20194;-63
2022/03/14 02:20:42;;;;;;;18.90;9.23;;;;;;;;;;5095287;28;20231;-65
2022/03/14 02:23:08;;;;;;;15.68;8.98;;;;;;;;;;5095265;28;20217;-65
2022/03/14 02:25:35;;;;;;;14.60;8.98;;;;;;;;;;5095315;28;20181;-64
2022/03/14 02:28:01;;;;;;;14.70;8.60;;;;;;;;;;5095535;28;20202;-65
2022/03/14 02:30:27;;;;;;;14.48;9.25;;;;;;;;;;5095023;28;20183;-65
2022/03/14 02:32:53;;;;;;;14.00;8.32;;;;;;;;;;5095150;28;20498;-64
2022/03/14 02:35:20;;;;;;;15.80;9.23;;;;;;;;;;5095100;28;20187;-64
2022/03/14 02:37:46;;;;;;;14.63;8.35;;;;;;;;;;5095199;28;20540;-64
2022/03/14 02:40:12;;;;;;;16.50;7.88;;;;;;;;;;5095396;28;20254;-63
2022/03/14 02:42:38;;;;;;;16.38;8.82;;;;;;;;;;5095033;28;20167;-64
2022/03/14 02:45:04;;;;;;;14.30;8.65;;;;;;;;;;5094858;28;20231;-64
2022/03/14 02:47:30;;;;;;;16.88;8.93;;;;;;;;;;5094998;28;20163;-64
2022/03/14 02:49:56;;;;;;;14.63;8.25;;;;;;;;;;5094929;28;20656;-64
2022/03/14 02:52:22;;;;;;;16.67;8.70;;;;;;;;;;5095097;28;20171;-64
2022/03/14 02:54:48;;;;;;;14.88;8.07;;;;;;;;;;5094628;28;20198;-64
2022/03/14 02:57:15;;;;;;;18.00;9.13;;;;;;;;;;5094554;28;20168;-64
2022/03/14 02:59:41;;;;;;;14.85;8.07;;;;;;;;;;5094433;28;20626;-63
2022/03/14 03:02:07;;;;;;;17.48;9.07;;;;;;;;;;5094331;28;20156;-63
2022/03/14 03:04:33;;;;;;;13.65;8.05;;;;;;;;;;5094427;28;20195;-64
2022/03/14 03:06:59;;;;;;;16.60;8.65;;;;;;;;;;5093342;28;20167;-63
2022/03/14 03:09:26;;;;;;;15.98;9.02;;;;;;;;;;5094943;28;20171;-64
2022/03/14 03:11:53;;;;;;;14.20;9.10;;;;;;;;;;5094474;28;20622;-63
2022/03/14 03:14:19;;;;;;;15.70;8.77;;;;;;;;;;5094429;28;20638;-64
2022/03/14 03:16:45;;;;;;;16.98;8.75;;;;;;;;;;5094082;28;20160;-63
2022/03/14 03:19:11;;;;;;;17.13;9.07;;;;;;;;;;5094270;28;20182;-64
2022/03/14 03:21:39;;;;;;;16.60;9.20;;;;;;;;;;5094275;28;20604;-64
2022/03/14 03:24:07;;;;;;;15.30;9.35;;;;;;;;;;5094373;28;20168;-63
2022/03/14 03:26:34;;;;;;;15.00;9.30;;;;;;;;;;5094348;28;20167;-64
2022/03/14 03:29:00;;;;;;;13.77;8.32;;;;;;;;;;5093967;28;20179;-63
2022/03/14 03:31:28;;;;;;;18.23;10.10;;;;;;;;;;5094449;28;20167;-64
2022/03/14 03:33:54;;;;;;;17.80;8.93;;;;;;;;;;5094365;28;20173;-64
2022/03/14 03:36:20;;;;;;;16.85;9.10;;;;;;;;;;5094080;28;20246;-64
2022/03/14 03:38:46;;;;;;;17.52;9.00;;;;;;;;;;5094174;28;20168;-63
2022/03/14 03:41:12;;;;;;;16.98;9.73;;;;;;;;;;5094155;28;20169;-63
2022/03/14 03:43:38;;;;;;;18.98;9.70;;;;;;;;;;5093999;28;20164;-63
2022/03/14 03:46:04;;;;;;;15.18;9.32;;;;;;;;;;5094170;28;20246;-63
2022/03/14 03:48:30;;;;;;;17.10;9.95;;;;;;;;;;5094120;28;20634;-63
2022/03/14 03:50:56;;;;;;;14.05;9.07;;;;;;;;;;5093820;28;20250;-63
2022/03/14 03:53:22;;;;;;;18.80;9.70;;;;;;;;;;5093737;28;20171;-63
2022/03/14 03:55:48;;;;;;;15.40;9.02;;;;;;;;;;5093756;28;20187;-63
2022/03/14 03:58:14;;;;;;;15.30;9.80;;;;;;;;;;5093902;28;20178;-64
2022/03/14 04:00:40;;;;;;;16.08;9.50;;;;;;;;;;5093508;28;20175;-63
2022/03/14 04:03:07;;;;;;;17.02;9.15;;;;;;;;;;5093566;28;20170;-63
2022/03/14 04:05:35;;;;;;;16.23;8.93;;;;;;;;;;5093736;28;20499;-63
2022/03/14 04:08:02;;;;;;;16.27;9.00;;;;;;;;;;5093796;28;20178;-63
2022/03/14 04:10:28;;;;;;;17.52;9.38;;;;;;;;;;5093788;28;20163;-63
2022/03/14 04:12:59;;;;;;;17.48;9.38;;;;;;;;;;5093639;28;20172;-63
2022/03/14 04:15:27;;;;;;;18.55;9.73;;;;;;;;;;5093950;28;20469;-63
2022/03/14 04:17:54;;;;;;;19.45;9.82;;;;;;;;;;5093433;28;20247;-63
2022/03/14 04:20:22;;;;;;;20.10;10.27;;;;;;;;;;5093709;28;20160;-63
2022/03/14 04:22:48;;;;;;;19.25;9.80;;;;;;;;;;5093520;28;20169;-64
2022/03/14 04:25:14;;;;;;;17.92;9.98;;;;;;;;;;5093454;28;20168;-63
2022/03/14 04:27:40;;;;;;;19.02;10.13;;;;;;;;;;5093461;28;20204;-63
2022/03/14 04:30:06;;;;;;;16.08;10.02;;;;;;;;;;5093434;28;20557;-64
2022/03/14 04:32:32;;;;;;;19.80;10.70;;;;;;;;;;5093385;28;20164;-63
2022/03/14 04:34:58;;;;;;;17.80;9.85;;;;;;;;;;5093649;28;20611;-59
2022/03/14 04:37:24;;;;;;;19.60;10.73;;;;;;;;;;5093373;28;20160;-60
2022/03/14 04:39:50;;;;;;;19.73;9.57;;;;;;;;;;5094489;28;20171;-60
2022/03/14 04:42:16;;;;;;;16.23;8.85;;;;;;;;;;5097255;28;20191;-58
2022/03/14 04:44:44;;;;;;;19.67;10.38;;;;;;;;;;5097172;28;20164;-59
2022/03/14 04:47:10;;;;;;;17.60;9.27;;;;;;;;;;5097418;28;20179;-59
2022/03/14 04:49:36;;;;;;;18.23;10.27;;;;;;;;;;5097701;28;20160;-60
2022/03/14 04:52:02;;;;;;;19.75;10.23;;;;;;;;;;5100718;28;20605;-61
2022/03/14 04:54:28;;;;;;;17.85;9.98;;;;;;;;;;5109810;28;20353;-61
2022/03/14 04:56:54;;;;;;;19.52;10.70;;;;;;;;;;5097094;28;20174;-61
2022/03/14 04:59:21;;;;;;;18.65;10.45;;;;;;;;;;5096970;28;20550;-61
2022/03/14 05:01:47;;;;;;;18.48;10.80;;;;;;;;;;5096775;28;20226;-60
2022/03/14 05:04:13;;;;;;;18.08;9.85;;;;;;;;;;5096849;28;20595;-61
2022/03/14 05:06:40;;;;;;;18.90;10.73;;;;;;;;;;5095834;28;20171;-61
2022/03/14 05:09:06;;;;;;;16.80;9.32;;;;;;;;;;5096992;28;20250;-60
2022/03/14 05:11:36;;;;;;;17.55;9.90;;;;;;;;;;5097011;28;20316;-61
2022/03/14 05:14:02;;;;;;;21.75;10.27;;;;;;;;;;5096473;28;20502;-60
2022/03/14 05:16:29;;;;;;;19.38;10.25;;;;;;;;;;5097122;28;20160;-59
2022/03/14 05:18:56;;;;;;;17.58;10.15;;;;;;;;;;5096743;28;20168;-60
2022/03/14 05:21:22;;;;;;;16.75;10.32;;;;;;;;;;5096878;28;20174;-60
2022/03/14 05:23:48;;;;;;;17.27;10.40;;;;;;;;;;5095671;28;20255;-61
2022/03/14 05:26:14;;;;;;;19.70;10.15;;;;;;;;;;5096726;28;20171;-61
2022/03/14 05:28:40;;;;;;;16.85;10.00;;;;;;;;;;5096768;28;20175;-60
2022/03/14 05:31:06;;;;;;;18.98;10.73;;;;;;;;;;5096995;28;20614;-60
2022/03/14 05:33:32;;;;;;;16.88;10.07;;;;;;;;;;5096407;28;20267;-60
2022/03/14 05:35:58;;;;;;;18.10;10.93;;;;;;;;;;5096386;28;20191;-59
2022/03/14 05:38:24;;;;;;;18.17;10.40;;;;;;;;;;5096491;28;20175;-61
2022/03/14 05:40:53;;;;;;;16.55;10.00;;;;;;;;;;5096890;28;20498;-59
2022/03/14 05:43:21;;;;;;;18.67;9.95;;;;;;;;;;5096216;28;20168;-60
2022/03/14 05:45:46;;;;;;;14.23;9.98;;;;;;;;;;5096137;28;20676;-61
2022/03/14 05:48:12;;;;;;;19.05;10.73;;;;;;;;;;5097155;28;20168;-61
2022/03/14 05:50:38;;;;;;;20.45;11.38;;;;;;;;;;5097101;28;20167;-60
2022/03/14 05:53:04;;;;;;;20.52;10.82;;;;;;;;;;5095048;28;20216;-61
2022/03/14 05:55:30;;;;;;;20.50;11.05;;;;;;;;;;5096700;28;20188;-61
2022/03/14 05:57:56;;;;;;;17.42;10.52;;;;;;;;;;5095728;28;20171;-61
2022/03/14 06:00:24;;;;;;;17.80;10.88;;;;;;;;;;5096301;28;20182;-58
2022/03/14 06:02:51;;;;;;;18.80;10.77;;;;;;;;;;5096240;28;20163;-61
2022/03/14 06:05:21;;;;;;;18.15;10.80;;;;;;;;;;5095840;28;20260;-61
2022/03/14 06:07:47;;;;;;;20.25;10.85;;;;;;;;;;5096507;28;20270;-61
2022/03/14 06:10:15;;;;;;;18.45;10.73;;;;;;;;;;5095394;28;20174;-61
2022/03/14 06:12:41;;;;;;;17.52;10.85;;;;;;;;;;5096122;28;20542;-61
2022/03/14 06:15:09;;;;;;;20.52;11.77;;;;;;;;;;5095692;28;20274;-61
2022/03/14 06:17:35;;;;;;;21.85;11.32;;;;;;;;;;5095684;28;20627;-61
2022/03/14 06:20:01;;;;;;;20.80;11.60;;;;;;;;;;5094249;28;20587;-61
2022/03/14 06:22:27;;;;;;;21.20;11.35;;;;;;;;;;5095223;28;20159;-60
2022/03/14 06:24:53;;;;;;;20.75;11.52;;;;;;;;;;5095454;28;20168;-60
2022/03/14 06:27:20;;;;;;;20.95;12.40;;;;;;;;;;5095505;28;20232;-60
2022/03/14 06:29:46;;;;;;;21.70;12.18;;;;;;;;;;5095194;28;20255;-60
2022/03/14 06:32:13;;;;;;;19.35;11.43;;;;;;;;;;5095285;28;20223;-61
2022/03/14 06:34:39;;;;;;;21.30;12.48;;;;;;;;;;5094911;28;20580;-61
2022/03/14 06:37:06;;;;;;;20.77;12.18;;;;;;;;;;5095075;28;20160;-60
2022/03/14 06:39:32;;;;;;;19.85;11.68;;;;;;;;;;5095171;28;20179;-61
2022/03/14 06:42:00;;;;;;;24.95;12.57;;;;;;;;;;5095067;28;20163;-60
2022/03/14 06:44:27;;;;;;;19.77;11.80;;;;;;;;;;5095173;28;20254;-60
2022/03/14 06:46:54;;;;;;;22.73;12.20;;;;;;;;;;5094943;28;20171;-64
2022/03/14 06:49:20;;;;;;;21.00;12.65;;;;;;;;;;5095496;28;20171;-64
2022/03/14 06:51:46;;;;;;;26.23;13.65;;;;;;;;;;5096581;28;20163;-64
2022/03/14 06:54:12;;;;;;;22.45;12.30;;;;;;;;;;5096156;28;20171;-64
2022/03/14 06:56:38;;;;;;;20.35;12.27;;;;;;;;;;5095170;28;20238;-63
2022/03/14 06:59:04;;;;;;;20.55;12.50;;;;;;;;;;5095627;28;20160;-62
2022/03/14 07:01:30;;;;;;;20.92;12.90;;;;;;;;;;5095431;28;20209;-64
2022/03/14 07:03:57;;;;;;;19.70;12.50;;;;;;;;;;5104714;28;20580;-64
2022/03/14 07:06:23;;;;;;;21.10;12.30;;;;;;;;;;5104146;28;20163;-64
2022/03/14 07:08:49;;;;;;;23.08;13.27;;;;;;;;;;5105314;28;20239;-65
2022/03/14 07:11:14;;;;;;;19.77;12.40;;;;;;;;;;5107326;28;20219;-64
2022/03/14 07:13:40;;;;;;;23.25;13.07;;;;;;;;;;5108972;28;20164;-64
2022/03/14 07:16:06;;;;;;;20.02;13.02;;;;;;;;;;5110861;28;20195;-64
2022/03/14 07:18:34;;;;;;;24.27;12.73;;;;;;;;;;5109976;28;20155;-64
2022/03/14 07:20:59;;;;;;;23.02;12.50;;;;;;;;;;5108668;28;20206;-64
2022/03/14 07:23:26;;;;;;;25.70;14.02;;;;;;;;;;5113767;28;20167;-64
2022/03/14 07:25:51;;;;;;;23.08;12.68;;;;;;;;;;5114423;28;20171;-65
2022/03/14 07:28:18;;;;;;;25.42;14.23;;;;;;;;;;5115260;28;20159;-64
2022/03/14 07:30:45;;;;;;;21.25;13.00;;;;;;;;;;5113295;28;20175;-65
2022/03/14 07:33:11;;;;;;;23.60;12.88;;;;;;;;;;5106910;28;20166;-64
2022/03/14 07:35:37;;;;;;;21.60;13.73;;;;;;;;;;5094041;28;20191;-64
2022/03/14 07:38:03;;;;;;;24.52;13.10;;;;;;;;;;5094185;28;20195;-64
2022/03/14 07:40:29;;;;;;;20.40;12.88;;;;;;;;;;5093956;28;20160;-64
2022/03/14 07:42:59;;;;;;;23.85;12.80;;;;;;;;;;5094017;28;20210;-64
2022/03/14 07:45:26;;;;;;;22.55;13.38;;;;;;;;;;5094549;28;20169;-64
2022/03/14 07:47:53;;;;;;;19.08;12.45;;;;;;;;;;5094148;28;20222;-64
2022/03/14 07:50:19;;;;;;;21.98;13.15;;;;;;;;;;5093846;28;20182;-63
2022/03/14 07:52:46;;;;;;;22.95;12.65;;;;;;;;;;5093781;28;20507;-63
2022/03/14 07:55:12;;;;;;;21.65;13.65;;;;;;;;;;5093929;28;20282;-64
2022/03/14 07:57:39;;;;;;;21.17;12.80;;;;;;;;;;5093348;28;20206;-63
2022/03/14 08:00:09;;;;;;;23.60;12.88;;;;;;;;;;5093340;28;20195;-63
2022/03/14 08:02:35;;;;;;;20.30;12.77;;;;;;;;;;5093799;28;20147;-63
2022/03/14 08:05:01;;;;;;;19.65;12.70;;;;;;;;;;5093541;28;20499;-63
2022/03/14 08:07:28;;;;;;;18.25;11.90;;;;;;;;;;5093267;28;20170;-65
2022/03/14 08:09:55;;;;;;;23.50;13.43;;;;;;;;;;5093469;28;20159;-63
2022/03/14 08:12:22;;;;;;;21.50;12.80;;;;;;;;;;5093606;28;20168;-62
2022/03/14 08:14:48;;;;;;;24.25;13.88;;;;;;;;;;5096150;28;20206;-64
2022/03/14 08:17:15;;;;;;;20.33;12.82;;;;;;;;;;5097374;28;20163;-63
2022/03/14 08:19:41;;;;;;;20.73;11.70;;;;;;;;;;5097516;28;20511;-63
2022/03/14 08:22:07;;;;;;;19.10;12.32;;;;;;;;;;5097552;28;20603;-64
2022/03/14 08:24:33;;;;;;;24.35;12.65;;;;;;;;;;5097097;28;20206;-64
2022/03/14 08:26:59;;;;;;;19.00;12.98;;;;;;;;;;5097186;28;20176;-64
2022/03/14 08:29:25;;;;;;;21.25;13.02;;;;;;;;;;5097047;28;20183;-64
2022/03/14 08:31:51;;;;;;;21.50;12.52;;;;;;;;;;5096948;28;20175;-64
2022/03/14 08:34:17;;;;;;;23.92;12.95;;;;;;;;;;5096880;28;20171;-64
2022/03/14 08:36:42;;;;;;;20.02;11.95;;;;;;;;;;5096958;28;20673;-64
2022/03/14 08:39:09;;;;;;;21.63;13.10;;;;;;;;;;5096875;28;20163;-63
2022/03/14 08:41:36;;;;;;;24.73;13.05;;;;;;;;;;5097059;28;20588;-64
2022/03/14 08:44:03;;;;;;;17.40;11.63;;;;;;;;;;5095947;28;20167;-64
2022/03/14 08:46:28;;;;;;;19.52;12.80;;;;;;;;;;5096667;28;20598;-64
2022/03/14 08:48:54;;;;;;;19.75;12.35;;;;;;;;;;5096665;28;20198;-64
2022/03/14 08:51:21;;;;;;;21.58;12.05;;;;;;;;;;5096695;28;20159;-64
2022/03/14 08:53:47;;;;;;;19.08;11.70;;;;;;;;;;5097088;28;20163;-64
2022/03/14 08:56:13;;;;;;;19.70;12.20;;;;;;;;;;5096492;28;20519;-64
2022/03/14 08:58:39;;;;;;;19.80;12.60;;;;;;;;;;5096907;28;20174;-64
2022/03/14 09:01:06;;;;;;;19.48;12.02;;;;;;;;;;5096359;28;20183;-64
2022/03/14 09:03:32;;;;;;;21.05;12.57;;;;;;;;;;5096947;28;20168;-64
2022/03/14 09:05:58;;;;;;;19.23;11.45;;;;;;;;;;5096624;28;20183;-64
2022/03/14 09:08:24;;;;;;;19.38;12.55;;;;;;;;;;5096688;28;20174;-64
2022/03/14 09:10:51;;;;;;;20.20;12.23;;;;;;;;;;5096406;28;20164;-64
2022/03/14 09:13:18;;;;;;;18.52;12.25;;;;;;;;;;5096418;28;20172;-64
2022/03/14 09:15:44;;;;;;;18.63;12.15;;;;;;;;;;5096527;28;20214;-64
2022/03/14 09:18:10;;;;;;;19.38;10.90;;;;;;;;;;5096573;28;20159;-64
2022/03/14 09:20:38;;;;;;;20.33;12.07;;;;;;;;;;5096293;28;20212;-63
2022/03/14 09:23:04;;;;;;;18.98;12.02;;;;;;;;;;5096227;28;20164;-64
2022/03/14 09:25:30;;;;;;;21.23;12.88;;;;;;;;;;5095680;28;20168;-64
2022/03/14 09:27:56;;;;;;;19.50;12.32;;;;;;;;;;5096362;28;20225;-64
2022/03/14 09:30:23;;;;;;;19.27;12.32;;;;;;;;;;5096333;28;20195;-64
2022/03/14 09:32:49;;;;;;;18.98;12.00;;;;;;;;;;5096361;28;20270;-64
2022/03/14 09:35:16;;;;;;;19.77;12.80;;;;;;;;;;5095981;28;20272;-64
2022/03/14 09:37:42;;;;;;;23.98;12.82;;;;;;;;;;5095809;28;20189;-64
2022/03/14 09:40:13;;;;;;;19.52;12.95;;;;;;;;;;5096134;28;20601;-64
2022/03/14 09:42:42;;;;;;;19.40;12.05;;;;;;;;;;5095990;28;20629;-64
2022/03/14 09:45:09;;;;;;;18.98;12.50;;;;;;;;;;5095797;28;20167;-65
2022/03/14 09:47:37;;;;;;;20.80;12.35;;;;;;;;;;5095637;28;20164;-64
2022/03/14 09:50:05;;;;;;;22.85;12.15;;;;;;;;;;5096180;28;20172;-64
2022/03/14 09:52:31;;;;;;;17.30;12.25;;;;;;;;;;5095538;28;20174;-64
2022/03/14 09:54:57;;;;;;;20.83;13.45;;;;;;;;;;5095579;28;20195;-64
2022/03/14 09:57:23;;;;;;;18.48;11.93;;;;;;;;;;5095770;28;20163;-62
2022/03/14 09:59:50;;;;;;;18.17;11.88;;;;;;;;;;5095664;28;20221;-62
2022/03/14 10:02:16;;;;;;;18.20;12.00;;;;;;;;;;5095987;28;20504;-61
2022/03/14 10:04:42;;;;;;;19.75;12.32;;;;;;;;;;5095815;28;20179;-62
2022/03/14 10:07:08;;;;;;;19.30;12.40;;;;;;;;;;5095555;28;20172;-62
2022/03/14 10:09:34;;;;;;;18.95;12.23;;;;;;;;;;5095987;28;20167;-62
2022/03/14 10:12:00;;;;;;;18.45;11.27;;;;;;;;;;5095557;28;20243;-62
2022/03/14 10:14:26;;;;;;;18.42;11.82;;;;;;;;;;5095769;28;20693;-62
2022/03/14 10:16:56;;;;;;;21.10;11.77;;;;;;;;;;5096326;28;20243;-62
2022/03/14 10:19:29;;;;;;;17.42;11.18;;;;;;;;;;5114056;22;20861;-63
2022/03/14 10:21:55;;;;;;;16.25;11.13;;;;;;;;;;5095803;28;20152;-63
2022/03/14 10:24:22;;;;;;;17.80;12.30;;;;;;;;;;5095912;28;20160;-62
2022/03/14 10:26:49;;;;;;;19.88;10.90;;;;;;;;;;5095557;28;20258;-62
2022/03/14 10:29:15;;;;;;;16.95;11.23;;;;;;;;;;5095514;28;20615;-62
2022/03/14 10:31:42;;;;;;;17.30;11.88;;;;;;;;;;5095426;28;20640;-62
2022/03/14 10:34:11;;;;;;;16.77;11.35;;;;;;;;;;5095922;28;20274;-63
2022/03/14 10:36:47;;;;;;;16.05;10.75;;;;;;;;;;5095517;28;20198;-63
2022/03/14 10:39:27;;;;;;;16.08;10.63;;;;;;;;;;5095196;28;20171;-63
2022/03/14 10:42:09;;;;;;;16.08;10.88;;;;;;;;;;5095232;28;20144;-62
2022/03/14 10:44:35;;;;;;;17.27;11.23;;;;;;;;;;5095061;28;20178;-62
2022/03/14 10:47:02;;;;;;;16.95;11.25;;;;;;;;;;5095508;28;20246;-62
2022/03/14 10:49:29;;;;;;;20.70;12.13;;;;;;;;;;5095463;28;20171;-64
2022/03/14 10:51:56;;;;;;;15.52;11.20;;;;;;;;;;5095152;28;20163;-61
2022/03/14 10:54:22;;;;;;;18.00;11.90;;;;;;;;;;5094951;28;20171;-61
2022/03/14 10:57:05;;;;;;;18.75;12.18;;;;;;;;;;5094787;28;20178;-61
2022/03/14 10:59:33;;;;;;;16.48;11.23;;;;;;;;;;5094852;28;20211;-62
2022/03/14 11:02:00;;;;;;;15.75;11.00;;;;;;;;;;5095423;28;20603;-61
2022/03/14 11:04:27;;;;;;;17.80;11.55;;;;;;;;;;5094872;28;20167;-61
2022/03/14 11:06:59;;;;;;;18.00;11.35;;;;;;;;;;5094322;28;20575;-61
2022/03/14 11:09:45;;;;;;;19.05;11.10;;;;;;;;;;5095066;28;20167;-61
2022/03/14 11:12:13;;;;;;;15.80;11.27;;;;;;;;;;5094901;28;20175;-61
2022/03/14 11:14:39;;;;;;;15.25;10.93;;;;;;;;;;5094178;28;20215;-61
2022/03/14 11:17:16;;;;;;;16.13;10.13;;;;;;;;;;5095330;28;20172;-61
2022/03/14 11:19:42;;;;;;;17.25;9.63;;;;;;;;;;5094644;28;20183;-61
2022/03/14 11:22:10;;;;;;;11.65;9.10;;;;;;;;;;5094521;28;20254;-61
2022/03/14 11:24:38;;;;;;;13.25;10.00;;;;;;;;;;5094692;28;20167;-61
2022/03/14 11:27:06;;;;;;;15.23;10.00;;;;;;;;;;5103154;28;20243;-61
2022/03/14 11:29:33;;;;;;;12.93;9.52;;;;;;;;;;5096456;28;20160;-62
2022/03/14 11:31:59;;;;;;;13.75;10.20;;;;;;;;;;5096044;28;20172;-63
2022/03/14 11:34:29;;;;;;;15.00;10.05;;;;;;;;;;5096415;28;20167;-61
2022/03/14 11:36:54;;;;;;;15.90;9.98;;;;;;;;;;5096222;28;20164;-62
2022/03/14 11:39:21;;;;;;;14.68;9.95;;;;;;;;;;5095368;28;20506;-62
2022/03/14 11:41:47;;;;;;;14.25;9.60;;;;;;;;;;5094886;28;20167;-62
2022/03/14 11:44:14;;;;;;;14.70;9.43;;;;;;;;;;5093634;28;20221;-61
2022/03/14 11:46:40;;;;;;;14.40;9.80;;;;;;;;;;5093692;28;20167;-61
2022/03/14 11:49:10;;;;;;;15.30;9.75;;;;;;;;;;5093972;28;20164;-62
2022/03/14 11:51:37;;;;;;;12.63;8.80;;;;;;;;;;5094098;28;20496;-62
2022/03/14 11:54:09;;;;;;;13.68;9.88;;;;;;;;;;5094010;28;20160;-62
2022/03/14 11:56:38;;;;;;;12.82;9.10;;;;;;;;;;5094242;28;20164;-62
2022/03/14 11:59:07;;;;;;;13.25;9.20;;;;;;;;;;5093607;28;20213;-62
2022/03/14 12:01:34;;;;;;;12.95;9.50;;;;;;;;;;5093496;28;20238;-61
2022/03/14 12:04:02;;;;;;;13.45;9.55;;;;;;;;;;5094189;28;20242;-62
2022/03/14 12:06:49;;;;;;;14.30;8.93;;;;;;;;;;5094547;28;20629;-62
2022/03/14 12:09:25;;;;;;;14.77;9.60;;;;;;;;;;5094674;28;20171;-63
2022/03/14 12:11:51;;;;;;;13.93;9.35;;;;;;;;;;5095050;28;20178;-62
2022/03/14 12:14:36;;;;;;;12.57;9.40;;;;;;;;;;5094920;28;20175;-63
2022/03/14 12:17:28;;;;;;;15.23;10.45;;;;;;;;;;5094098;28;20189;-64
2022/03/14 12:20:04;;;;;;;13.20;9.25;;;;;;;;;;5090512;28;20210;-64
2022/03/14 12:22:30;;;;;;;13.73;8.85;;;;;;;;;;5095422;28;20207;-63
2022/03/14 12:24:57;;;;;;;14.88;9.52;;;;;;;;;;5094698;28;20553;-64
2022/03/14 12:27:30;;;;;;;15.40;9.10;;;;;;;;;;5094534;28;20171;-63
2022/03/14 12:29:57;;;;;;;12.23;8.95;;;;;;;;;;5094850;28;20213;-62
2022/03/14 12:32:34;;;;;;;12.90;9.23;;;;;;;;;;5094707;28;20654;-62
2022/03/14 12:35:02;;;;;;;13.73;9.98;;;;;;;;;;5095195;28;20191;-63
2022/03/14 12:37:40;;;;;;;11.98;9.07;;;;;;;;;;5095142;28;20168;-63
2022/03/14 12:40:07;;;;;;;12.25;8.70;;;;;;;;;;5094875;28;20603;-62
2022/03/14 12:42:40;;;;;;;12.45;9.32;;;;;;;;;;5094036;28;20167;-63
2022/03/14 12:45:18;;;;;;;11.88;9.10;;;;;;;;;;5094529;28;20667;-63
2022/03/14 12:47:51;;;;;;;15.73;10.05;;;;;;;;;;5094250;28;20505;-63
2022/03/14 12:50:36;;;;;;;13.75;9.25;;;;;;;;;;5094991;28;20164;-63
2022/03/14 12:53:02;;;;;;;12.00;9.10;;;;;;;;;;5094378;28;20167;-62
2022/03/14 12:55:28;;;;;;;15.10;9.75;;;;;;;;;;5094535;28;20288;-63
2022/03/14 12:57:55;;;;;;;13.80;10.30;;;;;;;;;;5094647;28;20611;-62
2022/03/14 13:00:21;;;;;;;16.02;9.93;;;;;;;;;;5094710;28;20483;-62
2022/03/14 13:02:47;;;;;;;14.93;9.68;;;;;;;;;;5097708;28;20163;-62
2022/03/14 13:05:18;;;;;;;12.75;9.35;;;;;;;;;;5097678;28;20565;-63
2022/03/14 13:07:44;;;;;;;12.15;9.35;;;;;;;;;;5097623;28;20221;-62
2022/03/14 13:10:10;;;;;;;12.93;10.00;;;;;;;;;;5097456;28;20167;-62
2022/03/14 13:12:36;;;;;;;14.30;9.50;;;;;;;;;;5097584;28;20163;-62
2022/03/14 13:15:06;;;;;;;12.60;9.05;;;;;;;;;;5097115;28;20192;-63
2022/03/14 13:17:31;;;;;;;12.45;8.82;;;;;;;;;;5097502;28;20159;-63
2022/03/14 13:19:57;;;;;;;14.25;10.02;;;;;;;;;;5097354;28;20195;-64
2022/03/14 13:22:23;;;;;;;12.05;9.15;;;;;;;;;;5097973;28;20163;-63
2022/03/14 13:24:50;;;;;;;12.13;9.10;;;;;;;;;;5097178;28;20206;-63
2022/03/14 13:27:23;;;;;;;12.65;9.02;;;;;;;;;;5097018;28;20175;-64
2022/03/14 13:29:49;;;;;;;13.70;9.57;;;;;;;;;;5096442;28;20170;-64
2022/03/14 13:32:16;;;;;;;11.75;9.10;;;;;;;;;;5096651;28;20595;-64
2022/03/14 13:34:42;;;;;;;11.45;9.38;;;;;;;;;;5097407;28;20195;-64
2022/03/14 13:37:10;;;;;;;13.57;9.82;;;;;;;;;;5097464;28;20224;-62
2022/03/14 13:39:36;;;;;;;11.13;9.02;;;;;;;;;;5095776;28;20625;-63
2022/03/14 13:42:03;;;;;;;12.68;9.20;;;;;;;;;;5096242;28;20170;-63
2022/03/14 13:44:29;;;;;;;11.52;9.25;;;;;;;;;;5096478;28;20167;-64
2022/03/14 13:46:59;;;;;;;14.10;9.50;;;;;;;;;;5096104;28;20193;-62
2022/03/14 13:49:26;;;;;;;12.48;9.30;;;;;;;;;;5096105;28;20210;-63
2022/03/14 13:51:52;;;;;;;12.10;8.70;;;;;;;;;;5097170;28;20163;-62
2022/03/14 13:54:22;;;;;;;12.60;9.30;;;;;;;;;;5096628;28;20654;-63
2022/03/14 13:56:48;;;;;;;12.52;9.60;;;;;;;;;;5097159;28;20187;-62
2022/03/14 13:59:31;;;;;;;11.95;9.20;;;;;;;;;;5096213;28;20164;-62
2022/03/14 14:01:57;;;;;;;10.00;8.45;;;;;;;;;;5096609;28;20151;-64
2022/03/14 14:04:24;;;;;;;12.55;8.95;;;;;;;;;;5096952;28;20296;-64
2022/03/14 14:06:51;;;;;;;12.43;8.95;;;;;;;;;;5097360;28;20487;-62
2022/03/14 14:09:25;;;;;;;11.90;9.05;;;;;;;;;;5096513;28;20652;-63
2022/03/14 14:11:58;;;;;;;11.68;9.18;;;;;;;;;;5096537;28;20250;-62
2022/03/14 14:14:31;;;;;;;11.90;9.52;;;;;;;;;;5096652;28;20445;-64
2022/03/14 14:17:15;;;;;;;14.63;10.07;;;;;;;;;;5097396;28;20234;-63
2022/03/14 14:20:00;;;;;;;12.75;9.85;;;;;;;;;;5096085;28;20186;-63
2022/03/14 14:22:32;;;;;;;15.45;9.65;;;;;;;;;;5096566;28;20163;-63
2022/03/14 14:24:59;;;;;;;13.70;8.75;;;;;;;;;;5096972;28;20511;-63